Springfield-Branson National Airport Airport (SGF)

 

Airport Diagram
Current Weather/Forecast (VFR Conditions)
METAR KSGF 241414Z 16020G28KT 10SM SCT030 OVC090 07/02 A3000 RMK AO2 PK WND 16028/1411 T00720022
TAF KSGF 241133Z 2412/2512 16015G24KT P6SM BKN090 FM241900 17018KT P6SM VCSH OVC050 FM250000 16019G28KT 6SM SHRA BR VCTS OVC027CB FM250700 16014KT P6SM BKN021 WS020/20040KT PROB30 2507/2509 4SM TSRA BR OVC015CB FM250900 18014G22KT P6SM BKN017 PROB30 2509/2510 4SM TSRA BR OVC009CB FM251000 20012KT P6SM OVC009 PROB30 2510/2512 4SM TSRA BR OVC005CB

All Charts
General
Chart Name Download
AIRPORT DIAGRAM
TAKEOFF MINIMUMS
ALTERNATE MINIMUMS
HOT SPOT

Approaches
Chart Name Download
ILS OR LOC RWY 02
ILS OR LOC RWY 14
RNAV (GPS) RWY 02
RNAV (GPS) RWY 14
RNAV (GPS) RWY 20
RNAV (GPS) RWY 32
VOR/DME OR TACAN RWY 02
VOR OR TACAN RWY 20
HI-TACAN RWY 20


Inbound Traffic (Arrivals)

No inbound traffic.


Outbound Traffic (Departures)

No outbound traffic.